Ana Sayfa
METAR-TAF:

METAR-TAF

Havaalanları :

Auburn/Lewiston Municipal Airport

Auburn / Lewiston, Maine, Amerika Birleşik Devletleri

Enlem: 44-03N, Boylam: 070-17W, yükseklik: 88 m

Güncel hava durumu gözlemi

Rapor saat 07:56 UTC de 49 dakika önce yapıldı.
Sakin rüzgar
Sıcaklık -11°C
Nem 92%
Basınç 1019 hPa
Görüş mesafesi: 16.1 km
Açık gökyüzü

METAR: KLEW 230756Z AUTO 00000KT 10SM CLR M11/M12 A3009 RMK AO2 SLP200 T11061122 FZRANO

Saat: 03:45 (08:45 UTC)


TAF: eksik

4.000'den fazla havaalanı için hava durumu gözlemleri ve tahminleri (METAR ve TAF raporları).

Kullanılabilir istasyonlar harita üzerinde sarı ve kırmızı noktalarla gösterilir.

İstasyonun adını görmek için fareyi noktanın üzerinde gezdirin.

Sonrasında hava gözlem ve tahminlerini görmek için tıklayın.

Haritayı değiştirmek için: yaklaştırmak için siyah artı işaretli yeşil düğmeye ve uzaklaştırmak için de eksi işaretli düğmeye hızla tıklayın; bitişik haritalar için yeşil okları kullanın.


METAR-TAF: